Time;durP1;ratioP1;P1;durP2;ratioP2;P2;SDS_P1;SDS_P2;PMS_P1;PMS_P2;Temp;Humidity;BMP_temperature;BMP_pressure;BME280_temperature;BME280_humidity;BME280_pressure;Samples;Min_cycle;Max_cycle;Signal;HPM_P1;HPM_P2
2024/02/28 00:02:05;;;;;;;12.57;7.63;;;;;;;5.54;89.40;101013.44;5181570;28;20040;-73
2024/02/28 00:04:35;;;;;;;12.90;7.43;;;;;;;5.78;88.74;101014.06;5184061;28;20116;-73
2024/02/28 00:07:06;;;;;;;11.20;6.57;;;;;;;5.73;88.84;101015.00;5186540;28;20108;-73
2024/02/28 00:09:37;;;;;;;10.48;6.90;;;;;;;5.69;89.27;101014.16;5184760;28;20557;-72
2024/02/28 00:12:07;;;;;;;10.40;6.60;;;;;;;5.68;89.72;101016.75;5184760;28;20021;-73
2024/02/28 00:14:38;;;;;;;15.23;8.18;;;;;;;5.77;87.64;101017.50;5181153;28;20504;-72
2024/02/28 00:17:08;;;;;;;12.70;7.55;;;;;;;5.88;87.67;101020.06;5183759;28;20537;-73
2024/02/28 00:19:39;;;;;;;14.98;8.52;;;;;;;5.72;87.34;101023.63;5185276;28;20029;-72
2024/02/28 00:22:09;;;;;;;12.13;7.57;;;;;;;5.76;87.31;101015.78;5183420;28;20060;-73
2024/02/28 00:24:40;;;;;;;13.30;7.90;;;;;;;5.80;87.91;101006.28;5185464;28;20041;-72
2024/02/28 00:27:10;;;;;;;13.55;8.05;;;;;;;5.63;88.25;101024.56;5179951;28;20029;-73
2024/02/28 00:29:40;;;;;;;13.38;8.30;;;;;;;5.87;88.23;101019.19;5183740;28;20025;-73
2024/02/28 00:32:11;;;;;;;13.85;8.27;;;;;;;5.87;87.44;101023.50;5181702;28;20407;-73
2024/02/28 00:34:41;;;;;;;14.52;8.75;;;;;;;5.92;87.92;101017.41;5184402;28;20021;-73
2024/02/28 00:37:11;;;;;;;13.10;8.25;;;;;;;5.95;87.02;101016.53;5187036;28;20046;-73
2024/02/28 00:39:44;;;;;;;14.57;8.52;;;;;;;5.91;87.35;101025.22;5184476;28;20028;-73
2024/02/28 00:42:15;;;;;;;13.50;8.57;;;;;;;5.75;87.84;101033.97;5183222;28;20083;-73
2024/02/28 00:44:45;;;;;;;13.60;8.50;;;;;;;5.85;88.38;101031.31;5182131;28;20446;-73
2024/02/28 00:47:15;;;;;;;14.85;8.77;;;;;;;5.57;87.67;101032.38;5184934;28;20412;-73
2024/02/28 00:49:46;;;;;;;14.02;8.60;;;;;;;5.65;87.92;101030.59;5168795;28;20505;-73
2024/02/28 00:52:16;;;;;;;17.70;9.27;;;;;;;5.74;88.00;101042.63;5186658;28;20021;-73
2024/02/28 00:54:46;;;;;;;15.02;8.50;;;;;;;5.78;88.12;101039.13;5179845;28;20120;-73
2024/02/28 00:57:17;;;;;;;14.82;7.95;;;;;;;5.71;88.16;101043.50;5185490;28;20116;-73
2024/02/28 00:59:48;;;;;;;13.85;8.35;;;;;;;5.57;87.64;101034.13;5183151;28;20068;-73
2024/02/28 01:02:18;;;;;;;15.30;8.95;;;;;;;5.53;88.37;101040.19;5197788;28;20473;-73
2024/02/28 01:04:48;;;;;;;14.02;8.23;;;;;;;5.63;88.45;101041.84;5175798;28;20553;-73
2024/02/28 01:07:19;;;;;;;16.75;8.95;;;;;;;5.69;88.36;101047.84;5184006;28;20025;-73
2024/02/28 01:09:49;;;;;;;13.82;8.90;;;;;;;5.75;87.92;101058.16;5186232;28;20569;-73
2024/02/28 01:12:19;;;;;;;15.50;8.98;;;;;;;5.73;87.77;101056.47;5185711;28;20045;-73
2024/02/28 01:14:50;;;;;;;14.55;8.48;;;;;;;5.61;86.80;101056.56;5182339;28;20037;-73
2024/02/28 01:17:20;;;;;;;16.38;8.98;;;;;;;5.55;86.89;101057.47;5183809;28;20045;-73
2024/02/28 01:19:50;;;;;;;14.75;9.48;;;;;;;5.49;87.36;101051.47;5198896;28;20037;-73
2024/02/28 01:22:21;;;;;;;12.60;8.32;;;;;;;5.44;88.13;101053.25;5179857;28;20410;-73
2024/02/28 01:24:51;;;;;;;15.98;9.52;;;;;;;5.41;87.51;101048.94;5178279;28;20502;-73
2024/02/28 01:27:21;;;;;;;15.90;10.23;;;;;;;5.37;88.44;101055.88;5185721;28;20562;-73
2024/02/28 01:29:53;;;;;;;17.60;10.10;;;;;;;5.38;88.84;101054.13;5196381;28;20025;-73
2024/02/28 01:32:24;;;;;;;17.75;10.50;;;;;;;5.40;87.39;101067.09;5181267;28;20498;-73
2024/02/28 01:34:54;;;;;;;17.63;10.23;;;;;;;5.42;87.11;101055.81;5182010;28;20021;-73
2024/02/28 01:37:24;;;;;;;18.98;10.75;;;;;;;5.49;86.35;101061.84;5182513;28;20025;-73
2024/02/28 01:39:55;;;;;;;20.25;11.50;;;;;;;5.44;86.23;101058.41;5191642;28;20408;-73
2024/02/28 01:42:25;;;;;;;17.67;10.70;;;;;;;5.44;86.32;101058.41;5181884;28;20175;-73
2024/02/28 01:44:56;;;;;;;19.38;10.32;;;;;;;5.46;85.44;101048.91;5182270;28;20490;-73
2024/02/28 01:47:26;;;;;;;15.63;9.73;;;;;;;5.49;86.20;101046.28;5183749;28;20025;-73
2024/02/28 01:49:56;;;;;;;16.50;9.95;;;;;;;5.51;86.05;101048.00;5184179;28;20107;-73
2024/02/28 01:52:27;;;;;;;17.65;10.85;;;;;;;5.42;86.21;101044.63;5182128;28;20131;-73
2024/02/28 01:54:57;;;;;;;19.17;11.68;;;;;;;5.41;86.22;101035.97;5177180;28;20025;-73
2024/02/28 01:57:29;;;;;;;19.40;11.85;;;;;;;5.34;87.39;101028.25;5183801;28;20029;-73
2024/02/28 01:59:59;;;;;;;20.92;12.10;;;;;;;5.17;86.63;101024.91;5177949;28;20291;-73
2024/02/28 02:02:30;;;;;;;20.50;12.73;;;;;;;5.11;87.59;101030.16;5179174;28;20029;-73
2024/02/28 02:05:00;;;;;;;22.33;13.07;;;;;;;5.16;87.81;101028.38;5194761;28;20445;-73
2024/02/28 02:07:31;;;;;;;22.80;13.82;;;;;;;5.12;87.88;101033.63;5181177;28;20525;-73
2024/02/28 02:10:01;;;;;;;22.23;13.43;;;;;;;5.10;87.27;101038.78;5183218;28;20025;-73
2024/02/28 02:12:32;;;;;;;23.98;14.00;;;;;;;5.14;87.46;101039.63;5186842;28;20041;-72
2024/02/28 02:15:03;;;;;;;20.13;13.05;;;;;;;5.02;88.56;101022.44;5179025;28;20033;-73
2024/02/28 02:17:34;;;;;;;22.88;13.00;;;;;;;4.93;89.11;101029.38;5188438;28;20429;-73
2024/02/28 02:20:05;;;;;;;20.65;13.18;;;;;;;4.91;88.80;101033.72;5184525;28;20323;-72
2024/02/28 02:22:39;;;;;;;18.67;11.77;;;;;;;4.91;89.10;101034.59;5198732;28;20082;-73
2024/02/28 02:25:09;;;;;;;23.33;13.73;;;;;;;4.78;88.45;101038.09;5190051;28;21427;-73
2024/02/28 02:27:40;;;;;;;16.30;10.38;;;;;;;4.87;87.96;101035.47;5185986;28;20057;-73
2024/02/28 02:30:11;;;;;;;16.67;10.35;;;;;;;4.84;87.52;101040.66;5200172;28;20511;-73
2024/02/28 02:32:41;;;;;;;17.23;11.20;;;;;;;4.70;87.44;101055.41;5197158;28;20026;-73
2024/02/28 02:35:11;;;;;;;15.77;10.57;;;;;;;4.56;89.08;101048.56;5184130;28;20033;-73
2024/02/28 02:37:48;;;;;;;17.90;11.20;;;;;;;4.53;89.12;101052.03;5186918;28;20022;-73
2024/02/28 02:40:18;;;;;;;17.02;11.13;;;;;;;4.66;88.57;101038.16;5186211;28;20491;-73
2024/02/28 02:42:48;;;;;;;18.58;11.77;;;;;;;4.70;88.21;101037.28;5182605;28;20115;-73
2024/02/28 02:45:19;;;;;;;17.73;11.07;;;;;;;4.70;88.57;101026.06;5189603;28;20025;-73
2024/02/28 02:47:49;;;;;;;18.90;11.55;;;;;;;4.64;88.61;101026.94;5189021;28;20025;-73
2024/02/28 02:50:20;;;;;;;19.27;11.27;;;;;;;4.65;89.72;101025.22;5184670;28;20633;-73
2024/02/28 02:52:50;;;;;;;18.63;10.82;;;;;;;4.61;88.90;101029.56;5191076;28;20116;-73
2024/02/28 02:55:20;;;;;;;19.33;11.52;;;;;;;4.48;89.20;101037.38;5186469;28;20021;-73
2024/02/28 02:57:51;;;;;;;19.33;11.68;;;;;;;4.50;89.28;101036.50;5193621;28;20040;-73
2024/02/28 03:00:21;;;;;;;16.40;11.10;;;;;;;4.45;89.65;101034.81;5185161;28;20021;-72
2024/02/28 03:02:52;;;;;;;18.17;11.55;;;;;;;4.31;90.22;101027.06;5190294;28;20033;-73
2024/02/28 03:05:22;;;;;;;18.23;11.18;;;;;;;4.28;91.29;101028.84;5184467;28;20029;-73
2024/02/28 03:07:52;;;;;;;18.20;11.48;;;;;;;4.35;90.85;101036.56;5193127;28;20503;-73
2024/02/28 03:10:23;;;;;;;18.42;11.25;;;;;;;4.36;90.34;101027.06;5187804;28;20056;-73
2024/02/28 03:12:53;;;;;;;19.85;12.30;;;;;;;4.18;91.02;101027.13;5185690;28;20085;-73
2024/02/28 03:15:23;;;;;;;18.98;11.93;;;;;;;4.18;91.45;101025.41;5189374;28;20252;-73
2024/02/28 03:17:54;;;;;;;18.08;11.35;;;;;;;4.08;91.81;101039.22;5185896;28;20215;-73
2024/02/28 03:20:25;;;;;;;19.98;11.52;;;;;;;4.15;91.77;101030.56;5187849;28;20442;-73
2024/02/28 03:22:55;;;;;;;19.50;12.18;;;;;;;4.07;89.68;101029.75;5183137;28;20028;-72
2024/02/28 03:25:25;;;;;;;19.95;11.82;;;;;;;3.91;91.53;101030.63;5185787;28;20033;-73
2024/02/28 03:27:56;;;;;;;20.33;11.77;;;;;;;3.84;92.47;101030.66;5175819;28;20045;-71
2024/02/28 03:30:26;;;;;;;18.98;11.55;;;;;;;3.93;92.47;101041.84;5199864;28;20025;-73
2024/02/28 03:32:57;;;;;;;18.08;11.23;;;;;;;4.03;92.76;101046.13;5181373;28;20036;-70
2024/02/28 03:35:27;;;;;;;17.95;11.30;;;;;;;4.16;92.07;101050.41;5184688;28;20022;-73
2024/02/28 03:37:57;;;;;;;20.48;12.90;;;;;;;4.12;92.15;101053.84;5177516;28;20032;-71
2024/02/28 03:40:28;;;;;;;21.25;12.60;;;;;;;4.24;92.13;101053.84;5184024;28;20044;-73
2024/02/28 03:42:59;;;;;;;20.58;11.95;;;;;;;4.25;91.83;101052.97;5187353;28;20545;-72
2024/02/28 03:45:29;;;;;;;20.70;12.65;;;;;;;4.29;91.16;101052.09;5185347;28;20029;-73
2024/02/28 03:48:00;;;;;;;20.48;12.23;;;;;;;4.13;92.13;101055.56;5193719;28;20036;-72
2024/02/28 03:50:30;;;;;;;22.17;12.68;;;;;;;4.07;91.88;101060.78;5185724;28;20033;-73
2024/02/28 03:53:00;;;;;;;20.50;13.02;;;;;;;4.16;92.75;101059.91;5183209;28;20084;-73
2024/02/28 03:55:31;;;;;;;22.25;13.38;;;;;;;4.19;90.92;101055.59;5199280;28;20433;-73
2024/02/28 03:58:02;;;;;;;20.85;13.38;;;;;;;4.18;91.46;101046.09;5184748;28;20053;-73
2024/02/28 04:00:32;;;;;;;23.60;13.65;;;;;;;4.01;90.78;101054.75;5188359;28;20041;-73
2024/02/28 04:03:04;;;;;;;23.98;13.70;;;;;;;3.90;91.91;101062.53;5183047;28;20043;-73
2024/02/28 04:05:34;;;;;;;26.95;14.32;;;;;;;3.84;91.90;101057.38;5185430;28;20466;-72
2024/02/28 04:08:05;;;;;;;21.85;13.13;;;;;;;3.80;92.49;101058.22;5187758;28;20060;-73
2024/02/28 04:10:35;;;;;;;25.42;13.10;;;;;;;3.74;92.51;101065.97;5175662;28;20057;-73
2024/02/28 04:13:05;;;;;;;20.60;12.45;;;;;;;3.71;93.01;101059.94;5184723;23;20501;-75
2024/02/28 04:15:38;;;;;;;22.70;13.75;;;;;;;3.60;93.27;101070.28;5141408;28;20050;-75
2024/02/28 04:18:08;;;;;;;21.08;12.88;;;;;;;3.59;93.35;101080.63;5145099;28;20034;-75
2024/02/28 04:20:38;;;;;;;21.17;12.63;;;;;;;3.57;93.29;101091.81;5147446;28;20029;-75
2024/02/28 04:23:09;;;;;;;24.05;14.23;;;;;;;3.52;93.57;101088.38;5143191;28;20030;-75
2024/02/28 04:25:40;;;;;;;25.60;13.20;;;;;;;3.61;92.96;101097.00;5144403;28;20033;-75
2024/02/28 04:28:10;;;;;;;23.40;13.50;;;;;;;3.49;92.37;101098.69;5163884;28;20129;-75
2024/02/28 04:30:41;;;;;;;22.58;13.38;;;;;;;3.48;93.52;101104.72;5146238;28;20173;-75
2024/02/28 04:33:11;;;;;;;21.20;12.45;;;;;;;3.47;92.69;101095.25;5145875;28;20739;-75
2024/02/28 04:35:41;;;;;;;22.50;12.90;;;;;;;3.45;92.94;101112.47;5149165;28;20026;-75
2024/02/28 04:38:12;;;;;;;22.25;12.73;;;;;;;3.68;92.12;101116.81;5145427;28;20512;-75
2024/02/28 04:40:42;;;;;;;25.70;13.10;;;;;;;3.65;91.28;101117.66;5147516;28;20026;-75
2024/02/28 04:43:12;;;;;;;25.90;13.73;;;;;;;3.56;92.64;101123.69;5144448;28;20034;-75
2024/02/28 04:45:43;;;;;;;21.50;12.93;;;;;;;3.57;93.61;101133.16;5148426;28;20410;-75
2024/02/28 04:48:13;;;;;;;24.40;13.65;;;;;;;3.51;94.35;101131.41;5144116;28;20030;-75
2024/02/28 04:50:44;;;;;;;22.60;13.82;;;;;;;3.55;94.58;101135.72;5145645;28;20022;-75
2024/02/28 04:53:14;;;;;;;23.73;13.35;;;;;;;3.70;93.88;101144.38;5141679;28;20026;-75
2024/02/28 04:55:44;;;;;;;23.60;13.75;;;;;;;3.82;93.83;101135.78;5145599;28;20125;-75
2024/02/28 04:58:15;;;;;;;21.35;12.68;;;;;;;3.70;92.98;101139.22;5143728;28;20546;-75
2024/02/28 05:00:45;;;;;;;20.92;12.90;;;;;;;3.73;93.14;101140.91;5146051;28;20093;-75
2024/02/28 05:03:15;;;;;;;20.42;12.40;;;;;;;3.87;92.82;101141.78;5143566;28;20573;-75
2024/02/28 05:05:46;;;;;;;21.50;12.15;;;;;;;3.70;92.97;101146.97;5145940;28;20096;-75
2024/02/28 05:08:19;;;;;;;21.10;12.35;;;;;;;3.77;93.35;101142.66;5156867;28;20022;-75
2024/02/28 05:10:50;;;;;;;23.13;13.52;;;;;;;3.65;93.55;101137.47;5144612;28;20101;-75
2024/02/28 05:13:22;;;;;;;25.20;13.15;;;;;;;3.63;94.68;101139.19;5164022;28;20214;-75
2024/02/28 05:15:53;;;;;;;22.17;12.95;;;;;;;3.82;94.93;101139.19;5144277;28;20480;-75
2024/02/28 05:18:23;;;;;;;22.02;13.35;;;;;;;3.81;94.20;101141.81;5160019;28;20030;-75
2024/02/28 05:20:54;;;;;;;24.50;14.27;;;;;;;3.71;94.37;101146.09;5145777;28;21388;-75
2024/02/28 05:23:24;;;;;;;21.60;13.48;;;;;;;3.80;94.75;101145.25;5145780;28;20184;-75
2024/02/28 05:25:54;;;;;;;24.50;13.65;;;;;;;3.80;95.17;101143.50;5144918;28;20056;-75
2024/02/28 05:28:25;;;;;;;22.30;13.18;;;;;;;3.81;95.16;101145.22;5155108;28;20121;-75
2024/02/28 05:30:55;;;;;;;22.10;13.15;;;;;;;3.79;95.08;101146.97;5148338;28;20595;-76
2024/02/28 05:33:25;;;;;;;23.40;14.15;;;;;;;3.85;95.05;101154.75;5143552;28;20048;-75
2024/02/28 05:35:55;;;;;;;21.30;12.35;;;;;;;3.97;92.88;101146.97;5144381;28;20099;-75
2024/02/28 05:38:26;;;;;;;22.67;12.13;;;;;;;3.95;92.69;101146.09;5156354;28;20022;-75
2024/02/28 05:40:56;;;;;;;24.70;13.05;;;;;;;3.83;91.99;101142.66;5147485;28;20022;-75
2024/02/28 05:43:27;;;;;;;20.63;12.20;;;;;;;3.63;93.29;101147.78;5145937;28;20509;-75
2024/02/28 05:45:57;;;;;;;23.52;12.75;;;;;;;3.57;95.21;101148.66;5144575;28;20217;-75
2024/02/28 05:48:27;;;;;;;23.17;13.18;;;;;;;3.56;95.75;101152.09;5142598;28;20546;-76
2024/02/28 05:51:00;;;;;;;22.85;12.82;;;;;;;3.70;96.52;101156.44;5144758;28;20033;-75
2024/02/28 05:53:35;;;;;;;24.42;12.80;;;;;;;3.71;96.24;101164.19;5148205;28;20022;-75
2024/02/28 05:56:13;;;;;;;23.83;13.25;;;;;;;3.79;95.51;101162.47;5147560;28;20014;-75
2024/02/28 05:58:44;;;;;;;22.48;12.90;;;;;;;3.87;95.77;101160.75;5129332;28;20026;-75
2024/02/28 06:01:17;;;;;;;23.70;13.32;;;;;;;3.81;95.22;101168.50;5145248;28;20038;-75
2024/02/28 06:03:48;;;;;;;24.77;14.88;;;;;;;3.80;95.24;101173.69;5146984;28;20392;-76
2024/02/28 06:06:18;;;;;;;24.23;13.23;;;;;;;3.89;95.15;101171.97;5159290;28;20062;-75
2024/02/28 06:08:48;;;;;;;23.13;13.68;;;;;;;4.03;94.62;101172.84;5144871;28;20419;-76
2024/02/28 06:11:19;;;;;;;28.23;14.23;;;;;;;3.81;92.69;101172.81;5144629;28;20026;-75
2024/02/28 06:13:51;;;;;;;25.33;13.35;;;;;;;3.81;94.37;101184.00;5146108;28;20423;-75
2024/02/28 06:16:21;;;;;;;25.70;13.63;;;;;;;3.83;94.25;101194.34;5144061;28;20435;-75
2024/02/28 06:18:52;;;;;;;24.13;13.68;;;;;;;3.93;93.27;101199.53;5144750;28;20030;-75
2024/02/28 06:21:23;;;;;;;22.27;12.98;;;;;;;3.78;93.50;101202.09;5145578;28;20018;-75
2024/02/28 06:23:53;;;;;;;24.90;14.23;;;;;;;3.72;93.92;101209.84;5145731;28;20022;-75
2024/02/28 06:26:23;;;;;;;23.33;12.70;;;;;;;3.76;95.46;101209.00;5155607;28;20065;-75
2024/02/28 06:29:00;;;;;;;25.30;14.38;;;;;;;3.68;94.38;101208.13;5144045;28;20045;-77
2024/02/28 06:31:31;;;;;;;23.70;13.80;;;;;;;3.79;92.78;101208.16;5142786;28;20471;-75
2024/02/28 06:34:02;;;;;;;21.60;11.73;;;;;;;3.76;92.39;101211.56;5155796;28;20159;-76
2024/02/28 06:36:32;;;;;;;25.20;13.57;;;;;;;3.52;91.98;101213.25;5144230;28;20496;-75
2024/02/28 06:39:03;;;;;;;23.73;13.50;;;;;;;3.50;94.54;101224.44;5142442;28;20492;-75
2024/02/28 06:41:33;;;;;;;25.10;13.60;;;;;;;3.61;94.11;101234.78;5151905;28;20704;-76
2024/02/28 06:44:04;;;;;;;25.45;13.70;;;;;;;3.53;93.42;101234.78;5155408;28;20476;-75
2024/02/28 06:46:34;;;;;;;25.67;13.90;;;;;;;3.69;92.21;101230.53;5146196;28;20023;-75
2024/02/28 06:49:04;;;;;;;26.92;14.18;;;;;;;3.60;91.20;101240.81;5144470;28;20510;-75
2024/02/28 06:51:35;;;;;;;25.58;13.60;;;;;;;3.29;92.17;101245.00;5144838;28;20026;-76
2024/02/28 06:54:05;;;;;;;27.98;13.05;;;;;;;3.15;95.06;101252.69;5143729;28;20033;-75
2024/02/28 06:56:36;;;;;;;25.80;14.40;;;;;;;3.16;96.14;101251.00;5155010;28;20120;-75
2024/02/28 06:59:06;;;;;;;27.52;15.25;;;;;;;3.16;96.74;101253.56;5140676;28;20041;-75
2024/02/28 07:01:37;;;;;;;30.15;16.38;;;;;;;3.37;96.69;101258.84;5149538;28;20404;-75
2024/02/28 07:04:07;;;;;;;29.95;15.90;;;;;;;3.31;96.56;101262.25;5140061;28;20118;-75
2024/02/28 07:06:38;;;;;;;33.45;17.67;;;;;;;3.58;96.30;101252.88;5151759;28;20179;-75
2024/02/28 07:09:09;;;;;;;30.95;16.58;;;;;;;3.81;96.12;101238.28;5141953;28;20023;-75
2024/02/28 07:11:39;;;;;;;35.03;18.15;;;;;;;4.08;94.32;101238.34;5139137;28;20030;-74
2024/02/28 07:14:09;;;;;;;33.15;17.70;;;;;;;4.02;93.50;101238.34;5145920;28;20030;-76
2024/02/28 07:16:40;;;;;;;33.78;18.45;;;;;;;4.11;93.53;101238.34;5125166;28;20034;-76
2024/02/28 07:19:10;;;;;;;35.38;18.73;;;;;;;4.17;94.14;101232.31;5147565;28;20042;-75
2024/02/28 07:21:41;;;;;;;34.45;18.02;;;;;;;4.16;93.92;101231.44;5148973;28;20034;-75
2024/02/28 07:24:11;;;;;;;36.65;18.33;;;;;;;4.29;92.77;101228.00;5147199;28;20030;-75
2024/02/28 07:26:41;;;;;;;34.13;18.00;;;;;;;4.38;93.08;101230.59;5159283;28;20304;-75
2024/02/28 07:29:12;;;;;;;36.83;19.20;;;;;;;4.35;92.49;101232.31;5150031;28;20041;-75
2024/02/28 07:31:42;;;;;;;33.00;18.05;;;;;;;4.31;93.80;101234.03;5145005;28;20553;-75
2024/02/28 07:34:12;;;;;;;37.42;19.67;;;;;;;4.44;94.35;101242.69;5145393;28;20054;-76
2024/02/28 07:36:43;;;;;;;35.03;19.20;;;;;;;4.46;94.18;101249.56;5144867;28;20510;-75
2024/02/28 07:39:13;;;;;;;38.28;19.98;;;;;;;4.59;94.71;101253.88;5149836;28;20487;-75
2024/02/28 07:41:43;;;;;;;35.90;19.10;;;;;;;4.47;93.78;101248.69;5145237;28;20149;-75
2024/02/28 07:44:14;;;;;;;36.70;19.27;;;;;;;4.42;93.33;101254.72;5158875;28;20040;-75
2024/02/28 07:46:44;;;;;;;38.58;19.38;;;;;;;4.63;92.53;101250.41;5144072;28;20499;-76
2024/02/28 07:49:15;;;;;;;36.90;18.98;;;;;;;4.79;91.57;101253.88;5145125;28;20022;-75
2024/02/28 07:51:45;;;;;;;35.65;18.65;;;;;;;4.70;92.97;101252.16;5147778;28;20049;-75
2024/02/28 07:54:16;;;;;;;37.15;18.88;;;;;;;4.76;92.68;101252.13;5146218;28;20022;-75
2024/02/28 07:56:46;;;;;;;35.33;19.00;;;;;;;4.87;93.45;101254.69;5148094;28;20122;-75
2024/02/28 07:59:18;;;;;;;38.67;20.65;;;;;;;5.02;91.56;101250.38;5157570;28;20215;-76
2024/02/28 08:01:49;;;;;;;36.92;19.95;;;;;;;5.42;90.66;101257.97;5146124;28;20018;-75
2024/02/28 08:04:19;;;;;;;37.05;20.38;;;;;;;5.81;86.95;101256.97;5144465;28;20018;-76
2024/02/28 08:06:49;;;;;;;36.90;19.77;;;;;;;5.69;88.09;101254.41;5148701;28;20026;-75
2024/02/28 08:09:20;;;;;;;35.95;18.67;;;;;;;6.00;87.52;101256.00;5148032;28;20053;-76
2024/02/28 08:11:50;;;;;;;35.97;18.33;;;;;;;6.08;85.57;101255.06;5145310;28;20054;-76
2024/02/28 08:14:21;;;;;;;31.70;17.88;;;;;;;5.77;85.08;101261.28;5146209;28;20032;-75
2024/02/28 08:16:51;;;;;;;37.85;19.27;;;;;;;6.06;86.28;101261.16;5149599;28;20022;-76
2024/02/28 08:19:21;;;;;;;37.40;19.98;;;;;;;5.65;88.60;101257.88;5147191;28;20117;-76
2024/02/28 08:21:52;;;;;;;36.60;19.15;;;;;;;5.96;88.35;101262.06;5147794;28;20169;-75
2024/02/28 08:24:22;;;;;;;38.13;19.67;;;;;;;5.64;87.27;101263.94;5149178;28;20348;-74
2024/02/28 08:26:53;;;;;;;36.25;18.23;;;;;;;5.70;87.66;101259.59;5146852;28;20452;-76
2024/02/28 08:29:23;;;;;;;36.47;18.42;;;;;;;5.80;87.15;101261.31;5148541;28;20026;-76
2024/02/28 08:31:53;;;;;;;33.70;17.83;;;;;;;5.83;87.48;101258.69;5147711;28;20508;-76
2024/02/28 08:34:24;;;;;;;33.38;17.63;;;;;;;5.93;88.08;101264.69;5148726;28;20537;-73
2024/02/28 08:36:55;;;;;;;34.20;18.08;;;;;;;5.90;87.94;101256.94;5146571;28;20033;-76
2024/02/28 08:39:25;;;;;;;35.08;17.95;;;;;;;5.77;87.67;101263.88;5145138;28;20022;-74
2024/02/28 08:41:55;;;;;;;34.88;18.50;;;;;;;5.95;88.46;101265.53;5144051;28;20361;-75
2024/02/28 08:44:26;;;;;;;35.72;18.35;;;;;;;6.04;88.49;101268.06;5145883;28;20105;-76
2024/02/28 08:46:56;;;;;;;34.20;18.52;;;;;;;5.80;88.97;101270.81;5147871;28;20049;-76
2024/02/28 08:49:26;;;;;;;34.70;17.50;;;;;;;6.06;88.89;101259.41;5112750;28;20554;-76
2024/02/28 08:51:57;;;;;;;33.00;17.15;;;;;;;6.29;87.92;101262.69;5147038;28;20356;-75
2024/02/28 08:54:27;;;;;;;34.47;16.98;;;;;;;5.98;88.22;101276.78;5147466;28;20022;-75
2024/02/28 08:56:57;;;;;;;33.47;16.85;;;;;;;5.83;89.20;101279.44;5148487;28;21348;-75
2024/02/28 08:59:28;;;;;;;32.55;17.08;;;;;;;6.07;89.95;101271.50;5147242;28;20030;-76
2024/02/28 09:01:58;;;;;;;33.60;17.90;;;;;;;5.95;87.11;101275.91;5142888;28;20085;-75
2024/02/28 09:04:28;;;;;;;33.72;17.65;;;;;;;6.22;87.11;101271.41;5143691;28;20022;-75
2024/02/28 09:06:59;;;;;;;34.25;16.70;;;;;;;6.20;85.60;101274.88;5147547;28;20495;-75
2024/02/28 09:09:32;;;;;;;34.42;17.05;;;;;;;6.02;85.38;101277.59;5145457;28;20030;-75
2024/02/28 09:12:03;;;;;;;31.38;15.93;;;;;;;6.68;84.22;101274.50;5142669;28;20488;-75
2024/02/28 09:14:33;;;;;;;34.03;16.27;;;;;;;6.99;81.41;101270.75;5144313;28;20169;-76
2024/02/28 09:17:04;;;;;;;34.05;17.38;;;;;;;6.89;82.52;101282.97;5143929;28;20103;-76
2024/02/28 09:19:34;;;;;;;32.53;15.82;;;;;;;7.03;82.92;101280.22;5145262;28;20135;-75
2024/02/28 09:22:05;;;;;;;30.70;15.57;;;;;;;7.10;82.59;101277.56;5156280;28;20025;-76
2024/02/28 09:24:37;;;;;;;28.80;14.70;;;;;;;7.54;81.94;101276.19;5144837;28;20026;-75
2024/02/28 09:27:07;;;;;;;31.95;16.75;;;;;;;7.53;81.53;101273.63;5146186;28;20026;-75
2024/02/28 09:29:38;;;;;;;30.90;16.20;;;;;;;7.41;80.36;101268.56;5144183;28;20092;-75
2024/02/28 09:32:09;;;;;;;28.08;15.40;;;;;;;7.61;81.35;101261.34;5144155;28;20030;-76
2024/02/28 09:34:39;;;;;;;29.02;14.68;;;;;;;7.56;80.28;101264.00;5145253;28;20392;-76
2024/02/28 09:37:09;;;;;;;29.48;15.15;;;;;;;7.86;79.67;101253.22;5158211;28;20630;-76
2024/02/28 09:39:40;;;;;;;31.42;15.77;;;;;;;7.90;79.05;101265.28;5143184;28;20109;-76
2024/02/28 09:42:11;;;;;;;29.13;14.20;;;;;;;8.04;77.77;101258.16;5144542;28;20104;-76
2024/02/28 09:44:43;;;;;;;27.70;14.52;;;;;;;8.13;77.45;101260.63;5130795;28;20492;-75
2024/02/28 09:47:13;;;;;;;25.65;14.07;;;;;;;7.87;77.27;101265.34;5145020;28;20030;-76
2024/02/28 09:49:45;;;;;;;30.25;14.88;;;;;;;7.96;77.59;101273.03;5142153;28;20026;-76
2024/02/28 09:52:15;;;;;;;32.00;15.77;;;;;;;7.92;78.05;101273.97;5145217;28;20468;-75
2024/02/28 09:54:46;;;;;;;30.55;16.15;;;;;;;7.85;78.09;101277.50;5144869;28;20022;-75
2024/02/28 09:57:16;;;;;;;31.55;16.80;;;;;;;7.75;77.98;101272.47;5145586;28;20118;-75
2024/02/28 09:59:47;;;;;;;30.10;15.10;;;;;;;7.80;78.82;101273.25;5142370;28;20108;-75
2024/02/28 10:02:21;;;;;;;30.88;15.18;;;;;;;8.09;78.28;101274.59;5158245;28;20034;-75
2024/02/28 10:04:52;;;;;;;29.25;15.30;;;;;;;8.21;78.20;101276.19;5145819;28;20529;-75
2024/02/28 10:07:22;;;;;;;28.58;14.82;;;;;;;8.29;77.62;101274.31;5144454;28;20484;-76
2024/02/28 10:09:53;;;;;;;29.33;15.40;;;;;;;8.37;78.27;101278.50;5143180;28;20264;-75
2024/02/28 10:12:25;;;;;;;28.92;14.93;;;;;;;8.41;77.50;101279.34;5183861;23;21556;-73
2024/02/28 10:14:55;;;;;;;31.92;17.35;;;;;;;8.54;77.23;101280.88;5194886;28;20020;-73
2024/02/28 10:17:26;;;;;;;32.85;16.73;;;;;;;8.54;77.17;101286.94;5215942;28;20021;-74
2024/02/28 10:19:58;;;;;;;31.00;15.98;;;;;;;8.36;76.85;101291.59;5203579;28;20041;-73
2024/02/28 10:22:34;;;;;;;37.55;17.55;;;;;;;8.51;77.21;101296.53;5198177;28;20029;-74
2024/02/28 10:25:05;;;;;;;29.73;15.63;;;;;;;8.64;76.21;101303.28;5178638;28;20430;-73
2024/02/28 10:27:35;;;;;;;35.33;16.38;;;;;;;8.59;77.42;101307.69;5179077;28;20029;-73
2024/02/28 10:30:07;;;;;;;32.33;16.75;;;;;;;8.39;77.28;101310.59;5172152;28;20152;-73
2024/02/28 10:32:48;;;;;;;29.58;16.27;;;;;;;7.92;78.56;101315.59;5173263;28;20084;-73
2024/02/28 10:35:25;;;;;;;29.90;15.82;;;;;;;7.82;79.73;101319.19;5181211;28;20029;-74
2024/02/28 10:37:56;;;;;;;30.05;15.80;;;;;;;7.81;80.73;101330.47;5184442;28;20422;-73
2024/02/28 10:40:27;;;;;;;31.05;15.75;;;;;;;8.36;79.60;101318.47;5183989;28;20021;-73
2024/02/28 10:43:00;;;;;;;32.20;16.55;;;;;;;8.38;78.15;101321.91;5181962;28;20022;-73
2024/02/28 10:45:31;;;;;;;35.70;17.88;;;;;;;8.39;78.61;101323.63;5184782;28;20028;-73
2024/02/28 10:48:03;;;;;;;33.72;17.33;;;;;;;8.71;78.40;101325.75;5183998;28;20570;-73
2024/02/28 10:50:34;;;;;;;31.23;16.35;;;;;;;8.70;78.00;101321.44;5178357;28;20052;-74
2024/02/28 10:53:13;;;;;;;33.03;17.00;;;;;;;8.73;79.01;101322.22;5170760;28;20026;-73
2024/02/28 10:55:47;;;;;;;32.85;16.75;;;;;;;8.89;78.13;101318.47;5184276;28;20055;-73
2024/02/28 10:58:18;;;;;;;31.48;17.15;;;;;;;8.52;78.92;101324.31;5177065;28;20029;-73
2024/02/28 11:00:49;;;;;;;35.03;17.15;;;;;;;8.66;78.23;101323.22;5179229;28;20021;-74
2024/02/28 11:03:20;;;;;;;32.67;17.30;;;;;;;8.61;78.38;101325.03;5182803;28;20025;-74
2024/02/28 11:05:50;;;;;;;34.70;17.35;;;;;;;8.45;78.81;101331.38;5181888;28;20104;-74
2024/02/28 11:08:25;;;;;;;33.45;16.85;;;;;;;8.60;78.70;101325.94;5182864;28;20038;-73
2024/02/28 11:11:03;;;;;;;36.10;17.27;;;;;;;8.67;79.91;101319.72;5177980;28;20391;-73
2024/02/28 11:13:34;;;;;;;35.65;18.17;;;;;;;8.73;79.53;101326.59;5179601;28;20034;-73
2024/02/28 11:16:09;;;;;;;37.38;18.08;;;;;;;8.75;79.71;101325.66;5182073;28;20406;-72
2024/02/28 11:18:51;;;;;;;40.77;18.73;;;;;;;8.54;80.77;101320.78;5179508;28;20390;-73
2024/02/28 11:21:26;;;;;;;38.50;18.33;;;;;;;8.51;79.53;101317.38;5176689;28;20018;-73
2024/02/28 11:24:01;;;;;;;35.92;17.85;;;;;;;8.81;78.69;101311.66;5181694;28;20387;-73
2024/02/28 11:26:31;;;;;;;33.40;18.17;;;;;;;8.50;79.22;101310.44;5162092;28;20563;-74
2024/02/28 11:29:01;;;;;;;36.40;17.98;;;;;;;8.61;80.05;101306.81;5180799;28;20260;-73
2024/02/28 11:31:32;;;;;;;34.00;18.25;;;;;;;8.68;78.77;101311.03;5174073;28;20033;-74
2024/02/28 11:34:02;;;;;;;34.05;18.30;;;;;;;8.63;80.46;101319.78;5176350;28;20033;-73
2024/02/28 11:36:33;;;;;;;36.25;18.63;;;;;;;8.43;80.41;101307.09;5180434;28;20025;-73